Chia-i, Taiwan
Current Conditions -  °F | °C
As of 7:30 PM on Thursday 27 Nov 2014 (Local Time) from RCMQ Reporting Station
Haze Haze  
Wind Chill: 70°   Ceiling: 12000
Heat Index: 70°   Visibility: 3mi
Dew Point: 66°   Wind: 1mph
Humidity: 88%   Direction: 310°NW
Pressure: 29.94"   Gusts: NA
Location:  23.48°N, 120.44°E
Report Text: RCMQ 271130Z 31001KT 5000 BR FEW008 SCT060 BKN120 21/19 Q1014 NOSIG RMK A2996
Loading
Personal Weather Stations






























Interactive Weather Map New forecast layout! Learn more

10-Day Weather Forecast

Advertisements
Track Severe Weather on mobile